Clark, Missouri
Current Conditions -  °F | °C
As of 3:15 AM on Thursday 23 Oct 2014 (Local Time) from KVER Reporting Station
Clear Clear  
Wind Chill: 46°   Ceiling: Unl
Heat Index: 47°   Visibility: 7mi
Dew Point: 42°   Wind: 5mph
Humidity: 83%   Direction: 140°SE
Pressure: 30.15"   Gusts: NA
Location:  39.28°N, 92.34°W
Report Text: KVER 230815Z AUTO 14004KT 7SM CLR 09/06 A3015 RMK AO2 T00860058
Loading
Personal Weather Stations






























Interactive Weather Map
Tropical Storm Tracking
New forecast layout! Learn more

10-Day Weather Forecast

Advertisements
Track Severe Weather on mobile